sensor_id;sensor_type;location;lat;lon;timestamp;temperature;humidity
69328;DHT22;56472;52.114;5.492;2023-08-20T07:41:29;24.50;70.90
69328;DHT22;56472;52.114;5.492;2023-08-20T07:43:57;24.50;71.10
69328;DHT22;56472;52.114;5.492;2023-08-20T07:46:23;24.50;71.30
69328;DHT22;56472;52.114;5.492;2023-08-20T07:48:50;24.60;71.40
69328;DHT22;56472;52.114;5.492;2023-08-20T07:51:17;24.60;71.40
69328;DHT22;56472;52.114;5.492;2023-08-20T07:53:44;24.70;71.50
69328;DHT22;56472;52.114;5.492;2023-08-20T07:56:11;24.80;71.60
69328;DHT22;56472;52.114;5.492;2023-08-20T07:58:38;24.80;71.70
69328;DHT22;56472;52.114;5.492;2023-08-20T08:01:05;24.80;71.70
69328;DHT22;56472;52.114;5.492;2023-08-20T08:03:31;24.90;71.80
69328;DHT22;56472;52.114;5.492;2023-08-20T08:05:58;24.90;71.80
69328;DHT22;56472;52.114;5.492;2023-08-20T08:08:25;25.00;71.80
69328;DHT22;56472;52.114;5.492;2023-08-20T08:10:52;25.00;71.90
69328;DHT22;56472;52.114;5.492;2023-08-20T08:13:21;25.00;71.70
69328;DHT22;56472;52.114;5.492;2023-08-20T08:15:48;25.00;71.70
69328;DHT22;56472;52.114;5.492;2023-08-20T08:18:15;25.10;71.60
69328;DHT22;56472;52.114;5.492;2023-08-20T08:20:42;25.10;71.50
69328;DHT22;56472;52.114;5.492;2023-08-20T08:23:09;25.20;71.50
69328;DHT22;56472;52.114;5.492;2023-08-20T08:25:36;25.20;71.40
69328;DHT22;56472;52.114;5.492;2023-08-20T08:28:05;25.20;71.30
69328;DHT22;56472;52.114;5.492;2023-08-20T08:30:32;25.20;71.20
69328;DHT22;56472;52.114;5.492;2023-08-20T08:32:59;25.20;71.20
69328;DHT22;56472;52.114;5.492;2023-08-20T08:35:26;25.30;71.10
69328;DHT22;56472;52.114;5.492;2023-08-20T08:37:53;25.30;71.00
69328;DHT22;56472;52.114;5.492;2023-08-20T08:40:20;25.30;71.00
69328;DHT22;56472;52.114;5.492;2023-08-20T08:42:48;25.40;70.80
69328;DHT22;56472;52.114;5.492;2023-08-20T08:45:19;25.40;70.70
69328;DHT22;56472;52.114;5.492;2023-08-20T08:47:49;25.40;70.60
69328;DHT22;56472;52.114;5.492;2023-08-20T08:50:16;25.40;70.50
69328;DHT22;56472;52.114;5.492;2023-08-20T08:52:45;25.40;70.40
69328;DHT22;56472;52.114;5.492;2023-08-20T08:55:13;25.40;70.30
69328;DHT22;56472;52.114;5.492;2023-08-20T08:57:39;25.40;70.10
69328;DHT22;56472;52.114;5.492;2023-08-20T09:00:07;25.50;70.10
69328;DHT22;56472;52.114;5.492;2023-08-20T09:02:34;25.50;70.00
69328;DHT22;56472;52.114;5.492;2023-08-20T09:05:01;25.50;69.90
69328;DHT22;56472;52.114;5.492;2023-08-20T09:07:28;25.50;69.80
69328;DHT22;56472;52.114;5.492;2023-08-20T09:09:58;25.50;69.70
69328;DHT22;56472;52.114;5.492;2023-08-20T09:12:34;25.50;69.50
69328;DHT22;56472;52.114;5.492;2023-08-20T09:15:01;25.50;69.40
69328;DHT22;56472;52.114;5.492;2023-08-20T09:17:28;25.50;69.30
69328;DHT22;56472;52.114;5.492;2023-08-20T09:19:56;25.60;69.10
69328;DHT22;56472;52.114;5.492;2023-08-20T09:22:24;25.60;69.10
69328;DHT22;56472;52.114;5.492;2023-08-20T09:24:55;25.60;69.00
69328;DHT22;56472;52.114;5.492;2023-08-20T09:27:24;25.60;68.80
69328;DHT22;56472;52.114;5.492;2023-08-20T09:29:53;25.60;68.70
69328;DHT22;56472;52.114;5.492;2023-08-20T09:32:21;25.60;68.50
69328;DHT22;56472;52.114;5.492;2023-08-20T09:34:49;25.60;68.50
69328;DHT22;56472;52.114;5.492;2023-08-20T09:37:19;25.70;68.50
69328;DHT22;56472;52.114;5.492;2023-08-20T09:39:46;25.70;68.50
69328;DHT22;56472;52.114;5.492;2023-08-20T09:42:14;25.70;68.40
69328;DHT22;56472;52.114;5.492;2023-08-20T09:44:43;25.70;68.30
69328;DHT22;56472;52.114;5.492;2023-08-20T09:47:14;25.70;68.20
69328;DHT22;56472;52.114;5.492;2023-08-20T09:49:43;25.70;68.20
69328;DHT22;56472;52.114;5.492;2023-08-20T09:52:12;25.70;68.30
69328;DHT22;56472;52.114;5.492;2023-08-20T09:55:08;25.70;68.30
69328;DHT22;56472;52.114;5.492;2023-08-20T09:57:39;25.70;68.40
69328;DHT22;56472;52.114;5.492;2023-08-20T10:00:11;25.70;68.50
69328;DHT22;56472;52.114;5.492;2023-08-20T10:02:40;25.70;68.70
69328;DHT22;56472;52.114;5.492;2023-08-20T10:05:09;25.70;68.80
69328;DHT22;56472;52.114;5.492;2023-08-20T10:07:38;25.70;68.80
69328;DHT22;56472;52.114;5.492;2023-08-20T10:10:07;25.70;68.70
69328;DHT22;56472;52.114;5.492;2023-08-20T10:12:35;25.80;68.50
69328;DHT22;56472;52.114;5.492;2023-08-20T10:15:04;25.80;68.40
69328;DHT22;56472;52.114;5.492;2023-08-20T10:17:33;25.80;68.20
69328;DHT22;56472;52.114;5.492;2023-08-20T10:20:04;25.80;68.20
69328;DHT22;56472;52.114;5.492;2023-08-20T10:22:44;25.80;68.60
69328;DHT22;56472;52.114;5.492;2023-08-20T10:25:24;25.80;68.60
69328;DHT22;56472;52.114;5.492;2023-08-20T10:27:53;25.80;68.80
69328;DHT22;56472;52.114;5.492;2023-08-20T10:30:25;25.80;68.80
69328;DHT22;56472;52.114;5.492;2023-08-20T10:32:56;25.90;69.00
69328;DHT22;56472;52.114;5.492;2023-08-20T10:35:26;25.90;69.10
69328;DHT22;56472;52.114;5.492;2023-08-20T10:38:16;25.90;69.10
69328;DHT22;56472;52.114;5.492;2023-08-20T10:43:46;25.90;69.00
69328;DHT22;56472;52.114;5.492;2023-08-20T10:46:21;25.90;68.80
69328;DHT22;56472;52.114;5.492;2023-08-20T10:48:53;25.90;68.70
69328;DHT22;56472;52.114;5.492;2023-08-20T10:56:44;25.90;68.40
69328;DHT22;56472;52.114;5.492;2023-08-20T10:59:25;26.00;68.20
69328;DHT22;56472;52.114;5.492;2023-08-20T11:01:55;26.00;67.90
69328;DHT22;56472;52.114;5.492;2023-08-20T11:04:25;26.00;68.00
69328;DHT22;56472;52.114;5.492;2023-08-20T11:06:56;26.00;67.80
69328;DHT22;56472;52.114;5.492;2023-08-20T11:09:24;26.00;68.40
69328;DHT22;56472;52.114;5.492;2023-08-20T11:11:52;26.00;67.20
69328;DHT22;56472;52.114;5.492;2023-08-20T11:14:20;26.00;67.00
69328;DHT22;56472;52.114;5.492;2023-08-20T11:16:47;26.00;67.10
69328;DHT22;56472;52.114;5.492;2023-08-20T11:19:22;26.00;66.80
69328;DHT22;56472;52.114;5.492;2023-08-20T11:21:50;26.00;66.50
69328;DHT22;56472;52.114;5.492;2023-08-20T11:24:17;26.00;66.30
69328;DHT22;56472;52.114;5.492;2023-08-20T11:26:46;26.00;65.90
69328;DHT22;56472;52.114;5.492;2023-08-20T11:29:16;26.00;65.70
69328;DHT22;56472;52.114;5.492;2023-08-20T11:31:49;26.10;65.50
69328;DHT22;56472;52.114;5.492;2023-08-20T11:34:18;26.10;65.10
69328;DHT22;56472;52.114;5.492;2023-08-20T11:36:45;26.10;65.00
69328;DHT22;56472;52.114;5.492;2023-08-20T11:39:12;26.10;64.90
69328;DHT22;56472;52.114;5.492;2023-08-20T11:41:40;26.10;64.60
69328;DHT22;56472;52.114;5.492;2023-08-20T11:44:10;26.10;64.90
69328;DHT22;56472;52.114;5.492;2023-08-20T11:46:43;26.10;64.90
69328;DHT22;56472;52.114;5.492;2023-08-20T11:49:12;26.10;65.00
69328;DHT22;56472;52.114;5.492;2023-08-20T11:51:41;26.10;64.90
69328;DHT22;56472;52.114;5.492;2023-08-20T11:54:13;26.10;64.70
69328;DHT22;56472;52.114;5.492;2023-08-20T11:56:48;26.10;64.90
69328;DHT22;56472;52.114;5.492;2023-08-20T11:59:16;26.20;64.60
69328;DHT22;56472;52.114;5.492;2023-08-20T12:01:56;26.20;64.40
69328;DHT22;56472;52.114;5.492;2023-08-20T12:04:30;26.20;64.30
69328;DHT22;56472;52.114;5.492;2023-08-20T12:07:04;26.20;64.10
69328;DHT22;56472;52.114;5.492;2023-08-20T12:09:32;26.20;63.80
69328;DHT22;56472;52.114;5.492;2023-08-20T12:12:00;26.20;63.60
69328;DHT22;56472;52.114;5.492;2023-08-20T12:14:28;26.30;63.40
69328;DHT22;56472;52.114;5.492;2023-08-20T12:16:55;26.30;63.20
69328;DHT22;56472;52.114;5.492;2023-08-20T12:19:22;26.30;62.90
69328;DHT22;56472;52.114;5.492;2023-08-20T12:21:49;26.30;62.70
69328;DHT22;56472;52.114;5.492;2023-08-20T12:24:17;26.30;62.60
69328;DHT22;56472;52.114;5.492;2023-08-20T12:26:45;26.30;62.40
69328;DHT22;56472;52.114;5.492;2023-08-20T12:29:12;26.30;62.50
69328;DHT22;56472;52.114;5.492;2023-08-20T12:31:40;26.30;62.50
69328;DHT22;56472;52.114;5.492;2023-08-20T12:34:08;26.30;62.80
69328;DHT22;56472;52.114;5.492;2023-08-20T12:36:36;26.40;62.80
69328;DHT22;56472;52.114;5.492;2023-08-20T12:39:03;26.40;62.80
69328;DHT22;56472;52.114;5.492;2023-08-20T12:41:31;26.40;62.70
69328;DHT22;56472;52.114;5.492;2023-08-20T12:43:58;26.40;62.50
69328;DHT22;56472;52.114;5.492;2023-08-20T12:46:25;26.40;62.40
69328;DHT22;56472;52.114;5.492;2023-08-20T12:48:52;26.40;62.30
69328;DHT22;56472;52.114;5.492;2023-08-20T12:51:19;26.40;62.10
69328;DHT22;56472;52.114;5.492;2023-08-20T12:53:46;26.40;62.00
69328;DHT22;56472;52.114;5.492;2023-08-20T12:56:13;26.40;62.00
69328;DHT22;56472;52.114;5.492;2023-08-20T12:58:41;26.40;61.90
69328;DHT22;56472;52.114;5.492;2023-08-20T13:01:08;26.40;61.80
69328;DHT22;56472;52.114;5.492;2023-08-20T13:03:35;26.50;61.90
69328;DHT22;56472;52.114;5.492;2023-08-20T13:06:02;26.40;61.80
69328;DHT22;56472;52.114;5.492;2023-08-20T13:08:29;26.40;61.90
69328;DHT22;56472;52.114;5.492;2023-08-20T13:10:57;26.50;61.80
69328;DHT22;56472;52.114;5.492;2023-08-20T13:13:25;26.40;61.70
69328;DHT22;56472;52.114;5.492;2023-08-20T13:15:53;26.50;61.80
69328;DHT22;56472;52.114;5.492;2023-08-20T13:18:21;26.50;61.80
69328;DHT22;56472;52.114;5.492;2023-08-20T13:20:55;26.50;61.70
69328;DHT22;56472;52.114;5.492;2023-08-20T13:23:22;26.50;61.70
69328;DHT22;56472;52.114;5.492;2023-08-20T13:25:50;26.50;61.70
69328;DHT22;56472;52.114;5.492;2023-08-20T13:28:17;26.50;61.80
69328;DHT22;56472;52.114;5.492;2023-08-20T13:30:44;26.60;61.70
69328;DHT22;56472;52.114;5.492;2023-08-20T13:33:13;26.60;61.50
69328;DHT22;56472;52.114;5.492;2023-08-20T13:35:41;26.60;61.40
69328;DHT22;56472;52.114;5.492;2023-08-20T13:38:08;26.60;61.10
69328;DHT22;56472;52.114;5.492;2023-08-20T13:40:35;26.70;60.90
69328;DHT22;56472;52.114;5.492;2023-08-20T13:43:02;26.70;61.10
69328;DHT22;56472;52.114;5.492;2023-08-20T13:45:29;26.70;61.20
69328;DHT22;56472;52.114;5.492;2023-08-20T13:47:56;26.70;60.90
69328;DHT22;56472;52.114;5.492;2023-08-20T13:50:23;26.80;61.10
69328;DHT22;56472;52.114;5.492;2023-08-20T13:52:50;26.80;60.70
69328;DHT22;56472;52.114;5.492;2023-08-20T13:55:17;26.80;60.50
69328;DHT22;56472;52.114;5.492;2023-08-20T13:57:44;26.80;60.40
69328;DHT22;56472;52.114;5.492;2023-08-20T14:00:11;26.80;60.20
69328;DHT22;56472;52.114;5.492;2023-08-20T14:02:39;26.80;60.20
69328;DHT22;56472;52.114;5.492;2023-08-20T14:05:07;26.90;60.40
69328;DHT22;56472;52.114;5.492;2023-08-20T14:07:34;26.90;60.30
69328;DHT22;56472;52.114;5.492;2023-08-20T14:10:02;26.90;60.10
69328;DHT22;56472;52.114;5.492;2023-08-20T14:12:31;26.90;60.00
69328;DHT22;56472;52.114;5.492;2023-08-20T14:14:58;26.90;59.80
69328;DHT22;56472;52.114;5.492;2023-08-20T14:17:25;26.90;59.70
69328;DHT22;56472;52.114;5.492;2023-08-20T14:19:52;26.80;59.60
69328;DHT22;56472;52.114;5.492;2023-08-20T14:22:19;26.90;59.90
69328;DHT22;56472;52.114;5.492;2023-08-20T14:24:46;26.80;59.90
69328;DHT22;56472;52.114;5.492;2023-08-20T14:27:13;26.80;60.00
69328;DHT22;56472;52.114;5.492;2023-08-20T14:29:41;26.80;60.00
69328;DHT22;56472;52.114;5.492;2023-08-20T14:32:08;26.80;60.20
69328;DHT22;56472;52.114;5.492;2023-08-20T14:34:35;26.80;60.20
69328;DHT22;56472;52.114;5.492;2023-08-20T14:37:02;26.80;60.30
69328;DHT22;56472;52.114;5.492;2023-08-20T14:39:30;26.90;60.60
69328;DHT22;56472;52.114;5.492;2023-08-20T14:41:58;26.90;60.80
69328;DHT22;56472;52.114;5.492;2023-08-20T14:44:25;26.90;61.00
69328;DHT22;56472;52.114;5.492;2023-08-20T14:46:52;26.90;60.80
69328;DHT22;56472;52.114;5.492;2023-08-20T14:49:19;26.90;60.90
69328;DHT22;56472;52.114;5.492;2023-08-20T14:51:46;26.90;60.60
69328;DHT22;56472;52.114;5.492;2023-08-20T14:54:13;26.90;60.40
69328;DHT22;56472;52.114;5.492;2023-08-20T14:56:41;27.00;60.40
69328;DHT22;56472;52.114;5.492;2023-08-20T14:59:08;27.00;60.30
69328;DHT22;56472;52.114;5.492;2023-08-20T15:01:36;27.00;60.30
69328;DHT22;56472;52.114;5.492;2023-08-20T15:04:03;27.00;60.50
69328;DHT22;56472;52.114;5.492;2023-08-20T15:06:30;27.00;61.40
69328;DHT22;56472;52.114;5.492;2023-08-20T15:08:57;27.10;60.40
69328;DHT22;56472;52.114;5.492;2023-08-20T15:11:24;27.10;60.20
69328;DHT22;56472;52.114;5.492;2023-08-20T15:13:51;27.10;60.40
69328;DHT22;56472;52.114;5.492;2023-08-20T15:16:18;27.20;60.50
69328;DHT22;56472;52.114;5.492;2023-08-20T15:18:45;27.20;60.60
69328;DHT22;56472;52.114;5.492;2023-08-20T15:21:12;27.30;60.70
69328;DHT22;56472;52.114;5.492;2023-08-20T15:23:39;27.30;60.70
69328;DHT22;56472;52.114;5.492;2023-08-20T15:26:06;27.30;60.60
69328;DHT22;56472;52.114;5.492;2023-08-20T15:28:34;27.40;60.60
69328;DHT22;56472;52.114;5.492;2023-08-20T15:31:01;27.40;60.40
69328;DHT22;56472;52.114;5.492;2023-08-20T15:33:28;27.50;60.40
69328;DHT22;56472;52.114;5.492;2023-08-20T15:35:58;27.50;60.00
69328;DHT22;56472;52.114;5.492;2023-08-20T15:38:26;27.60;59.90
69328;DHT22;56472;52.114;5.492;2023-08-20T15:40:56;27.60;59.80
69328;DHT22;56472;52.114;5.492;2023-08-20T15:43:25;27.60;59.80
69328;DHT22;56472;52.114;5.492;2023-08-20T15:45:51;27.60;59.50
69328;DHT22;56472;52.114;5.492;2023-08-20T15:48:19;27.70;59.40
69328;DHT22;56472;52.114;5.492;2023-08-20T15:50:46;27.70;59.10
69328;DHT22;56472;52.114;5.492;2023-08-20T15:53:13;27.60;58.70
69328;DHT22;56472;52.114;5.492;2023-08-20T15:55:40;27.60;58.50
69328;DHT22;56472;52.114;5.492;2023-08-20T15:58:07;27.60;58.60
69328;DHT22;56472;52.114;5.492;2023-08-20T16:00:34;27.60;58.70
69328;DHT22;56472;52.114;5.492;2023-08-20T16:03:02;27.50;58.70
69328;DHT22;56472;52.114;5.492;2023-08-20T16:05:29;27.50;58.70
69328;DHT22;56472;52.114;5.492;2023-08-20T16:07:56;27.50;58.90
69328;DHT22;56472;52.114;5.492;2023-08-20T16:10:23;27.50;59.00
69328;DHT22;56472;52.114;5.492;2023-08-20T16:12:50;27.50;59.00
69328;DHT22;56472;52.114;5.492;2023-08-20T16:15:18;27.40;58.90
69328;DHT22;56472;52.114;5.492;2023-08-20T16:17:45;27.40;58.90
69328;DHT22;56472;52.114;5.492;2023-08-20T16:20:12;27.40;58.90
69328;DHT22;56472;52.114;5.492;2023-08-20T16:22:39;27.40;59.00
69328;DHT22;56472;52.114;5.492;2023-08-20T16:25:06;27.40;59.10
69328;DHT22;56472;52.114;5.492;2023-08-20T16:27:33;27.40;59.10
69328;DHT22;56472;52.114;5.492;2023-08-20T16:30:06;27.40;59.10
69328;DHT22;56472;52.114;5.492;2023-08-20T16:32:32;27.40;59.10
69328;DHT22;56472;52.114;5.492;2023-08-20T16:35:00;27.40;59.20
69328;DHT22;56472;52.114;5.492;2023-08-20T16:37:26;27.30;59.20
69328;DHT22;56472;52.114;5.492;2023-08-20T16:39:53;27.30;59.20
69328;DHT22;56472;52.114;5.492;2023-08-20T16:42:20;27.30;59.20
69328;DHT22;56472;52.114;5.492;2023-08-20T16:44:47;27.30;59.30
69328;DHT22;56472;52.114;5.492;2023-08-20T16:47:15;27.30;59.30
69328;DHT22;56472;52.114;5.492;2023-08-20T16:49:41;27.30;59.30
69328;DHT22;56472;52.114;5.492;2023-08-20T16:52:09;27.30;59.30
69328;DHT22;56472;52.114;5.492;2023-08-20T16:54:36;27.30;59.40
69328;DHT22;56472;52.114;5.492;2023-08-20T16:57:03;27.30;59.70
69328;DHT22;56472;52.114;5.492;2023-08-20T16:59:30;27.20;59.60
69328;DHT22;56472;52.114;5.492;2023-08-20T17:01:57;27.20;59.60
69328;DHT22;56472;52.114;5.492;2023-08-20T17:04:24;27.20;59.60
69328;DHT22;56472;52.114;5.492;2023-08-20T17:06:52;27.20;59.50
69328;DHT22;56472;52.114;5.492;2023-08-20T17:09:19;27.20;59.60
69328;DHT22;56472;52.114;5.492;2023-08-20T17:11:47;27.20;59.60
69328;DHT22;56472;52.114;5.492;2023-08-20T17:14:14;27.10;59.50
69328;DHT22;56472;52.114;5.492;2023-08-20T17:16:42;27.10;59.70
69328;DHT22;56472;52.114;5.492;2023-08-20T17:19:09;27.10;59.60
69328;DHT22;56472;52.114;5.492;2023-08-20T17:21:35;27.10;59.50
69328;DHT22;56472;52.114;5.492;2023-08-20T17:24:02;27.10;59.50
69328;DHT22;56472;52.114;5.492;2023-08-20T17:26:29;27.10;59.50
69328;DHT22;56472;52.114;5.492;2023-08-20T17:28:56;27.10;59.60
69328;DHT22;56472;52.114;5.492;2023-08-20T17:31:23;27.00;59.50
69328;DHT22;56472;52.114;5.492;2023-08-20T17:33:50;27.00;59.70
69328;DHT22;56472;52.114;5.492;2023-08-20T17:36:17;27.00;59.60
69328;DHT22;56472;52.114;5.492;2023-08-20T17:38:44;27.00;59.50
69328;DHT22;56472;52.114;5.492;2023-08-20T17:41:11;27.00;59.60
69328;DHT22;56472;52.114;5.492;2023-08-20T17:43:38;26.90;59.50
69328;DHT22;56472;52.114;5.492;2023-08-20T17:46:05;27.00;59.70
69328;DHT22;56472;52.114;5.492;2023-08-20T17:48:32;27.00;59.50
69328;DHT22;56472;52.114;5.492;2023-08-20T17:50:58;26.90;59.10
69328;DHT22;56472;52.114;5.492;2023-08-20T17:53:25;26.90;58.90
69328;DHT22;56472;52.114;5.492;2023-08-20T17:55:53;26.90;58.70
69328;DHT22;56472;52.114;5.492;2023-08-20T17:58:21;26.80;58.50
69328;DHT22;56472;52.114;5.492;2023-08-20T18:00:48;26.90;58.40
69328;DHT22;56472;52.114;5.492;2023-08-20T18:03:15;26.90;58.30
69328;DHT22;56472;52.114;5.492;2023-08-20T18:05:43;26.80;58.10
69328;DHT22;56472;52.114;5.492;2023-08-20T18:08:11;26.80;57.80
69328;DHT22;56472;52.114;5.492;2023-08-20T18:10:37;26.80;57.60
69328;DHT22;56472;52.114;5.492;2023-08-20T18:13:04;26.80;57.60
69328;DHT22;56472;52.114;5.492;2023-08-20T18:15:34;26.80;57.60
69328;DHT22;56472;52.114;5.492;2023-08-20T18:18:01;26.80;57.90
69328;DHT22;56472;52.114;5.492;2023-08-20T18:20:28;26.70;58.30
69328;DHT22;56472;52.114;5.492;2023-08-20T18:22:55;26.70;59.00
69328;DHT22;56472;52.114;5.492;2023-08-20T18:25:22;26.70;59.20
69328;DHT22;56472;52.114;5.492;2023-08-20T18:27:48;26.70;59.60
69328;DHT22;56472;52.114;5.492;2023-08-20T18:30:15;26.70;60.20
69328;DHT22;56472;52.114;5.492;2023-08-20T18:32:43;26.70;60.80
69328;DHT22;56472;52.114;5.492;2023-08-20T18:35:10;26.70;61.00
69328;DHT22;56472;52.114;5.492;2023-08-20T18:37:37;26.70;61.20
69328;DHT22;56472;52.114;5.492;2023-08-20T18:40:05;26.60;61.10
69328;DHT22;56472;52.114;5.492;2023-08-20T18:42:35;26.60;61.40
69328;DHT22;56472;52.114;5.492;2023-08-20T18:45:02;26.60;62.00
69328;DHT22;56472;52.114;5.492;2023-08-20T18:47:29;26.60;62.50
69328;DHT22;56472;52.114;5.492;2023-08-20T18:49:57;26.60;62.90
69328;DHT22;56472;52.114;5.492;2023-08-20T18:52:24;26.50;62.70
69328;DHT22;56472;52.114;5.492;2023-08-20T18:54:51;26.50;62.70
69328;DHT22;56472;52.114;5.492;2023-08-20T18:57:18;26.50;62.80
69328;DHT22;56472;52.114;5.492;2023-08-20T18:59:45;26.50;62.80
69328;DHT22;56472;52.114;5.492;2023-08-20T19:02:12;26.50;62.90
69328;DHT22;56472;52.114;5.492;2023-08-20T19:04:39;26.40;62.70
69328;DHT22;56472;52.114;5.492;2023-08-20T19:07:06;26.50;62.40
69328;DHT22;56472;52.114;5.492;2023-08-20T19:09:35;26.40;62.30
69328;DHT22;56472;52.114;5.492;2023-08-20T19:12:02;26.40;62.20
69328;DHT22;56472;52.114;5.492;2023-08-20T19:14:29;26.40;63.10
69328;DHT22;56472;52.114;5.492;2023-08-20T19:16:56;26.30;62.00
69328;DHT22;56472;52.114;5.492;2023-08-20T19:19:23;26.30;62.00
69328;DHT22;56472;52.114;5.492;2023-08-20T19:21:51;26.40;61.90
69328;DHT22;56472;52.114;5.492;2023-08-20T19:24:18;26.30;61.80
69328;DHT22;56472;52.114;5.492;2023-08-20T19:26:45;26.30;61.80
69328;DHT22;56472;52.114;5.492;2023-08-20T19:29:12;26.30;61.60
69328;DHT22;56472;52.114;5.492;2023-08-20T19:31:39;26.30;61.90
69328;DHT22;56472;52.114;5.492;2023-08-20T19:34:06;26.30;62.10
69328;DHT22;56472;52.114;5.492;2023-08-20T19:36:33;26.20;61.80
69328;DHT22;56472;52.114;5.492;2023-08-20T19:39:00;26.20;61.80
69328;DHT22;56472;52.114;5.492;2023-08-20T19:41:27;26.20;61.90
69328;DHT22;56472;52.114;5.492;2023-08-20T19:43:54;26.20;62.80
69328;DHT22;56472;52.114;5.492;2023-08-20T19:46:21;26.20;61.80
69328;DHT22;56472;52.114;5.492;2023-08-20T19:48:52;26.20;62.10
69328;DHT22;56472;52.114;5.492;2023-08-20T19:51:18;26.20;62.30
69328;DHT22;56472;52.114;5.492;2023-08-20T19:53:45;26.10;62.30
69328;DHT22;56472;52.114;5.492;2023-08-20T19:56:12;26.10;62.40
69328;DHT22;56472;52.114;5.492;2023-08-20T19:58:39;26.10;62.30
69328;DHT22;56472;52.114;5.492;2023-08-20T20:01:07;26.10;62.40
69328;DHT22;56472;52.114;5.492;2023-08-20T20:03:34;26.10;62.50
69328;DHT22;56472;52.114;5.492;2023-08-20T20:06:01;26.10;62.50
69328;DHT22;56472;52.114;5.492;2023-08-20T20:08:29;26.10;62.50
69328;DHT22;56472;52.114;5.492;2023-08-20T20:10:56;26.00;62.50
69328;DHT22;56472;52.114;5.492;2023-08-20T20:13:23;26.00;62.60
69328;DHT22;56472;52.114;5.492;2023-08-20T20:15:50;26.00;62.60
69328;DHT22;56472;52.114;5.492;2023-08-20T20:18:17;26.00;62.70
69328;DHT22;56472;52.114;5.492;2023-08-20T20:20:43;26.00;62.80
69328;DHT22;56472;52.114;5.492;2023-08-20T20:23:18;26.00;62.90
69328;DHT22;56472;52.114;5.492;2023-08-20T20:25:45;25.90;62.80
69328;DHT22;56472;52.114;5.492;2023-08-20T20:28:12;25.90;62.80
69328;DHT22;56472;52.114;5.492;2023-08-20T20:30:40;25.90;62.80
69328;DHT22;56472;52.114;5.492;2023-08-20T20:33:07;25.90;62.80
69328;DHT22;56472;52.114;5.492;2023-08-20T20:35:34;25.90;62.80
69328;DHT22;56472;52.114;5.492;2023-08-20T20:38:01;25.90;62.80
69328;DHT22;56472;52.114;5.492;2023-08-20T20:40:30;25.80;62.70
69328;DHT22;56472;52.114;5.492;2023-08-20T20:42:58;25.80;62.80
69328;DHT22;56472;52.114;5.492;2023-08-20T20:45:25;25.80;62.80
69328;DHT22;56472;52.114;5.492;2023-08-20T20:47:52;25.80;63.00
69328;DHT22;56472;52.114;5.492;2023-08-20T20:50:18;25.80;63.10
69328;DHT22;56472;52.114;5.492;2023-08-20T20:52:45;25.80;63.20
69328;DHT22;56472;52.114;5.492;2023-08-20T20:55:12;25.70;63.10
69328;DHT22;56472;52.114;5.492;2023-08-20T20:57:39;25.70;63.10
69328;DHT22;56472;52.114;5.492;2023-08-20T21:00:06;25.70;63.10
69328;DHT22;56472;52.114;5.492;2023-08-20T21:02:35;25.70;63.20
69328;DHT22;56472;52.114;5.492;2023-08-20T21:05:02;25.70;63.40
69328;DHT22;56472;52.114;5.492;2023-08-20T21:07:29;25.70;63.10
69328;DHT22;56472;52.114;5.492;2023-08-20T21:09:56;25.70;63.10
69328;DHT22;56472;52.114;5.492;2023-08-20T21:12:23;25.70;63.10
69328;DHT22;56472;52.114;5.492;2023-08-20T21:14:50;25.60;63.10
69328;DHT22;56472;52.114;5.492;2023-08-20T21:17:17;25.60;63.10
69328;DHT22;56472;52.114;5.492;2023-08-20T21:19:44;25.60;63.10
69328;DHT22;56472;52.114;5.492;2023-08-20T21:22:11;25.60;63.10
69328;DHT22;56472;52.114;5.492;2023-08-20T21:24:39;25.60;63.10
69328;DHT22;56472;52.114;5.492;2023-08-20T21:27:06;25.60;63.10
69328;DHT22;56472;52.114;5.492;2023-08-20T21:29:38;25.60;63.10
69328;DHT22;56472;52.114;5.492;2023-08-20T21:32:07;25.50;63.00
69328;DHT22;56472;52.114;5.492;2023-08-20T21:34:34;25.50;63.00
69328;DHT22;56472;52.114;5.492;2023-08-20T21:37:01;25.50;63.00
69328;DHT22;56472;52.114;5.492;2023-08-20T21:39:28;25.50;63.00
69328;DHT22;56472;52.114;5.492;2023-08-20T21:41:55;25.50;63.10
69328;DHT22;56472;52.114;5.492;2023-08-20T21:44:22;25.40;63.00
69328;DHT22;56472;52.114;5.492;2023-08-20T21:46:53;25.40;62.90
69328;DHT22;56472;52.114;5.492;2023-08-20T21:49:21;25.40;62.90
69328;DHT22;56472;52.114;5.492;2023-08-20T21:51:51;25.40;63.00
69328;DHT22;56472;52.114;5.492;2023-08-20T21:54:18;25.40;62.90
69328;DHT22;56472;52.114;5.492;2023-08-20T21:56:50;25.40;62.90
69328;DHT22;56472;52.114;5.492;2023-08-20T21:59:18;25.30;62.80
69328;DHT22;56472;52.114;5.492;2023-08-20T22:01:45;25.30;62.80
69328;DHT22;56472;52.114;5.492;2023-08-20T22:04:12;25.30;62.80
69328;DHT22;56472;52.114;5.492;2023-08-20T22:06:39;25.30;62.80
69328;DHT22;56472;52.114;5.492;2023-08-20T22:09:06;25.30;62.80
69328;DHT22;56472;52.114;5.492;2023-08-20T22:11:33;25.30;62.80
69328;DHT22;56472;52.114;5.492;2023-08-20T22:14:00;25.20;62.80
69328;DHT22;56472;52.114;5.492;2023-08-20T22:16:27;25.20;62.80
69328;DHT22;56472;52.114;5.492;2023-08-20T22:18:54;25.20;62.80
69328;DHT22;56472;52.114;5.492;2023-08-20T22:21:21;25.20;62.70
69328;DHT22;56472;52.114;5.492;2023-08-20T22:23:48;25.20;62.80
69328;DHT22;56472;52.114;5.492;2023-08-20T22:26:14;25.20;63.70
69328;DHT22;56472;52.114;5.492;2023-08-20T22:28:41;25.20;62.80
69328;DHT22;56472;52.114;5.492;2023-08-20T22:31:08;25.10;62.70
69328;DHT22;56472;52.114;5.492;2023-08-20T22:33:35;25.10;62.70
69328;DHT22;56472;52.114;5.492;2023-08-20T22:36:02;25.10;62.70
69328;DHT22;56472;52.114;5.492;2023-08-20T22:38:29;25.10;62.70
69328;DHT22;56472;52.114;5.492;2023-08-20T22:40:56;25.10;62.70
69328;DHT22;56472;52.114;5.492;2023-08-20T22:43:23;25.10;62.70
69328;DHT22;56472;52.114;5.492;2023-08-20T22:45:50;25.00;62.60
69328;DHT22;56472;52.114;5.492;2023-08-20T22:48:17;25.00;63.00
69328;DHT22;56472;52.114;5.492;2023-08-20T22:50:44;25.00;64.00
69328;DHT22;56472;52.114;5.492;2023-08-20T22:53:11;25.00;63.20
69328;DHT22;56472;52.114;5.492;2023-08-20T22:55:38;25.00;63.20
69328;DHT22;56472;52.114;5.492;2023-08-20T22:58:04;25.00;63.20
69328;DHT22;56472;52.114;5.492;2023-08-20T23:00:31;25.00;63.20
69328;DHT22;56472;52.114;5.492;2023-08-20T23:02:58;25.00;63.20
69328;DHT22;56472;52.114;5.492;2023-08-20T23:05:25;25.00;63.30
69328;DHT22;56472;52.114;5.492;2023-08-20T23:07:52;25.00;63.10
69328;DHT22;56472;52.114;5.492;2023-08-20T23:10:19;24.90;63.10
69328;DHT22;56472;52.114;5.492;2023-08-20T23:12:46;24.90;63.10
69328;DHT22;56472;52.114;5.492;2023-08-20T23:15:13;24.90;63.20
69328;DHT22;56472;52.114;5.492;2023-08-20T23:17:40;24.90;63.20
69328;DHT22;56472;52.114;5.492;2023-08-20T23:20:07;24.90;63.20
69328;DHT22;56472;52.114;5.492;2023-08-20T23:22:34;24.90;63.10